createdAt,value
2019-03-17T00:01:14.740Z,8.40
2019-03-17T00:03:43.761Z,8.30
2019-03-17T00:06:12.810Z,8.40
2019-03-17T00:08:41.627Z,8.30
2019-03-17T00:11:10.652Z,8.30
2019-03-17T00:13:39.442Z,8.30
2019-03-17T00:16:08.261Z,8.30
2019-03-17T00:18:37.123Z,8.20
2019-03-17T00:21:06.226Z,8.10
2019-03-17T00:23:35.032Z,8.10
2019-03-17T00:26:03.910Z,8.10
2019-03-17T00:28:32.842Z,8.00
2019-03-17T00:31:01.735Z,7.90
2019-03-17T00:33:30.902Z,7.90
2019-03-17T00:35:59.840Z,7.90
2019-03-17T00:38:28.816Z,8.00
2019-03-17T00:40:57.670Z,8.00
2019-03-17T00:43:26.596Z,8.10
2019-03-17T00:45:55.400Z,8.10
2019-03-17T00:48:24.363Z,8.10
2019-03-17T00:50:53.217Z,8.10
2019-03-17T00:53:22.129Z,8.00
2019-03-17T00:55:50.961Z,8.00
2019-03-17T00:58:19.969Z,7.90
2019-03-17T01:00:48.885Z,7.90
2019-03-17T01:03:18.229Z,7.90
2019-03-17T01:05:47.132Z,7.90
2019-03-17T01:08:16.037Z,7.90
2019-03-17T01:10:44.972Z,8.00
2019-03-17T01:13:13.937Z,8.00
2019-03-17T01:15:42.768Z,8.00
2019-03-17T01:18:11.761Z,8.00
2019-03-17T01:20:40.664Z,8.00
2019-03-17T01:23:09.554Z,8.00
2019-03-17T01:25:38.509Z,8.00
2019-03-17T01:28:07.358Z,8.00
2019-03-17T01:30:36.191Z,7.90
2019-03-17T01:33:05.173Z,7.90
2019-03-17T01:35:33.982Z,8.00
2019-03-17T01:38:02.788Z,8.00
2019-03-17T01:40:31.707Z,8.00
2019-03-17T01:43:00.501Z,8.00
2019-03-17T01:45:29.435Z,7.90
2019-03-17T01:47:58.382Z,7.90
2019-03-17T01:50:27.314Z,7.90
2019-03-17T01:52:56.184Z,7.90
2019-03-17T01:55:25.091Z,7.80
2019-03-17T01:57:54.097Z,7.80
2019-03-17T02:00:22.931Z,7.80
2019-03-17T02:02:51.816Z,7.70
2019-03-17T02:05:22.347Z,7.70
2019-03-17T02:07:51.555Z,7.60
2019-03-17T02:10:20.717Z,7.60
2019-03-17T02:12:49.709Z,7.60
2019-03-17T02:15:18.735Z,7.60
2019-03-17T02:17:47.713Z,7.60
2019-03-17T02:20:16.932Z,7.60
2019-03-17T02:22:45.932Z,7.60
2019-03-17T02:25:14.753Z,7.60
2019-03-17T02:27:43.679Z,7.50
2019-03-17T02:30:13.027Z,7.60
2019-03-17T02:32:42.368Z,7.60
2019-03-17T02:35:11.400Z,7.60
2019-03-17T02:37:40.222Z,7.60
2019-03-17T02:40:09.062Z,7.60
2019-03-17T02:42:38.191Z,7.50
2019-03-17T02:45:09.444Z,7.50
2019-03-17T02:47:38.645Z,7.50
2019-03-17T02:50:08.942Z,7.50
2019-03-17T02:52:38.419Z,7.50
2019-03-17T02:55:08.452Z,7.50
2019-03-17T02:57:37.369Z,7.40
2019-03-17T03:00:09.135Z,7.40
2019-03-17T03:02:38.029Z,7.40
2019-03-17T03:05:08.197Z,7.30
2019-03-17T03:07:37.078Z,7.30
2019-03-17T03:10:06.531Z,7.30
2019-03-17T03:12:35.638Z,7.30
2019-03-17T03:15:06.889Z,7.30
2019-03-17T03:17:36.552Z,7.20
2019-03-17T03:20:07.391Z,7.20
2019-03-17T03:22:36.440Z,7.10
2019-03-17T03:25:09.046Z,7.10
2019-03-17T03:27:38.036Z,7.10
2019-03-17T03:30:12.954Z,7.00
2019-03-17T03:32:42.020Z,7.00
2019-03-17T03:35:10.993Z,7.00
2019-03-17T03:37:39.931Z,7.00
2019-03-17T03:40:11.262Z,7.00
2019-03-17T03:42:40.160Z,6.90
2019-03-17T03:45:11.632Z,6.90
2019-03-17T03:47:40.498Z,6.80
2019-03-17T03:50:10.584Z,6.80
2019-03-17T03:52:39.458Z,6.80
2019-03-17T03:55:09.131Z,6.80
2019-03-17T03:57:38.686Z,6.80
2019-03-17T04:00:10.863Z,6.70
2019-03-17T04:02:39.808Z,6.70
2019-03-17T04:05:08.829Z,6.60
2019-03-17T04:07:37.616Z,6.60
2019-03-17T04:10:10.776Z,6.60
2019-03-17T04:12:39.652Z,6.60
2019-03-17T04:15:10.101Z,6.60
2019-03-17T04:17:38.879Z,6.50
2019-03-17T04:20:09.356Z,6.50
2019-03-17T04:22:38.263Z,6.50
2019-03-17T04:25:07.537Z,6.50
2019-03-17T04:27:36.696Z,6.50
2019-03-17T04:30:08.424Z,6.50
2019-03-17T04:32:37.615Z,6.50
2019-03-17T04:35:07.027Z,6.50
2019-03-17T04:37:36.017Z,6.50
2019-03-17T04:40:07.079Z,6.50
2019-03-17T04:42:36.331Z,6.50
2019-03-17T04:45:06.196Z,6.50
2019-03-17T04:47:35.081Z,6.50
2019-03-17T04:50:04.654Z,6.50
2019-03-17T04:52:33.488Z,6.50
2019-03-17T04:55:02.284Z,6.40
2019-03-17T04:57:31.166Z,6.40
2019-03-17T04:59:59.955Z,6.40
2019-03-17T05:02:28.886Z,6.40
2019-03-17T05:04:57.712Z,6.30
2019-03-17T05:07:26.529Z,6.20
2019-03-17T05:09:55.335Z,6.20
2019-03-17T05:12:24.142Z,6.20
2019-03-17T05:14:53.021Z,6.10
2019-03-17T05:17:22.009Z,6.10
2019-03-17T05:19:50.846Z,6.10
2019-03-17T05:22:19.811Z,6.10
2019-03-17T05:24:48.724Z,6.10
2019-03-17T05:27:17.570Z,6.10
2019-03-17T05:29:46.529Z,6.10
2019-03-17T05:32:15.457Z,6.00
2019-03-17T05:34:44.795Z,6.00
2019-03-17T05:37:13.687Z,6.00
2019-03-17T05:39:42.574Z,6.00
2019-03-17T05:42:11.381Z,6.00
2019-03-17T05:44:40.595Z,6.00
2019-03-17T05:47:09.403Z,5.90
2019-03-17T05:49:38.268Z,5.90
2019-03-17T05:52:07.135Z,6.00
2019-03-17T05:54:36.164Z,6.00
2019-03-17T05:57:05.042Z,6.00
2019-03-17T05:59:33.882Z,6.10
2019-03-17T06:02:04.288Z,6.20
2019-03-17T06:04:33.135Z,6.20
2019-03-17T06:07:02.134Z,6.30
2019-03-17T06:09:31.333Z,6.30
2019-03-17T06:12:00.159Z,6.40
2019-03-17T06:14:29.044Z,6.50
2019-03-17T06:16:57.868Z,6.60
2019-03-17T06:19:26.758Z,6.60
2019-03-17T06:21:55.685Z,6.70
2019-03-17T06:24:24.491Z,6.80
2019-03-17T06:26:53.372Z,6.90
2019-03-17T06:29:22.285Z,7.00
2019-03-17T06:31:51.274Z,7.00
2019-03-17T06:34:20.063Z,7.10
2019-03-17T06:36:48.882Z,7.20
2019-03-17T06:39:17.764Z,7.20
2019-03-17T06:41:46.868Z,7.30
2019-03-17T09:40:18.296Z,15.80
2019-03-17T09:42:47.328Z,16.10
2019-03-17T09:45:16.631Z,16.40
2019-03-17T09:47:45.617Z,16.70
2019-03-17T09:50:19.729Z,16.60
2019-03-17T09:52:48.656Z,16.60
2019-03-17T09:55:17.619Z,16.70
2019-03-17T09:57:46.862Z,16.70
2019-03-17T10:00:19.675Z,16.60
2019-03-17T10:02:48.632Z,16.50
2019-03-17T10:05:17.523Z,16.30
2019-03-17T10:07:46.482Z,15.90
2019-03-17T10:10:22.551Z,15.60
2019-03-17T10:12:51.543Z,15.40
2019-03-17T10:15:20.886Z,15.30
2019-03-17T10:17:49.866Z,15.20
2019-03-17T10:20:19.832Z,15.20
2019-03-17T10:22:48.646Z,15.10
2019-03-17T10:25:17.697Z,15.10
2019-03-17T10:27:46.721Z,15.10
2019-03-17T10:30:19.639Z,15.10
2019-03-17T10:32:48.635Z,15.10
2019-03-17T10:35:17.660Z,15.00
2019-03-17T10:37:48.799Z,15.00
2019-03-17T10:40:19.039Z,15.00
2019-03-17T10:42:48.116Z,15.00
2019-03-17T10:45:17.145Z,15.00
2019-03-17T10:47:46.028Z,15.00
2019-03-17T10:50:19.259Z,14.90
2019-03-17T10:52:48.298Z,15.00
2019-03-17T10:55:17.158Z,14.90
2019-03-17T10:57:46.034Z,14.90
2019-03-17T11:00:19.107Z,15.00
2019-03-17T11:02:48.007Z,15.00
2019-03-17T11:05:16.977Z,15.00
2019-03-17T11:07:46.526Z,15.10
2019-03-17T11:13:48.551Z,15.30
2019-03-17T11:16:17.406Z,15.30
2019-03-17T11:18:46.482Z,15.40
2019-03-17T11:21:15.668Z,15.30
2019-03-17T11:23:44.592Z,15.40
2019-03-17T11:26:13.428Z,15.50
2019-03-17T11:28:42.463Z,15.60
2019-03-17T11:31:11.497Z,15.60
2019-03-17T11:33:40.437Z,15.70
2019-03-17T11:36:09.315Z,15.60
2019-03-17T11:38:38.449Z,15.70
2019-03-17T11:41:07.243Z,15.90
2019-03-17T11:43:36.290Z,16.30
2019-03-17T11:46:05.109Z,16.80
2019-03-17T11:48:34.144Z,16.80
2019-03-17T11:51:02.970Z,16.80
2019-03-17T11:53:31.961Z,16.60
2019-03-17T11:56:00.938Z,16.50
2019-03-17T11:58:29.743Z,16.40
2019-03-17T12:00:58.822Z,16.30
2019-03-17T12:03:27.877Z,16.30
2019-03-17T12:05:56.900Z,16.40
2019-03-17T12:08:26.109Z,16.40
2019-03-17T12:10:55.112Z,16.50
2019-03-17T12:13:23.949Z,16.50
2019-03-17T12:15:52.864Z,16.40
2019-03-17T12:18:21.880Z,16.50
2019-03-17T12:20:52.204Z,16.50
2019-03-17T12:23:21.269Z,16.50
2019-03-17T12:25:50.241Z,16.50
2019-03-17T12:28:19.333Z,16.50
2019-03-17T12:30:48.219Z,16.50
2019-03-17T12:33:17.111Z,16.50
2019-03-17T12:35:45.937Z,16.50
2019-03-17T12:38:14.858Z,16.40
2019-03-17T12:40:43.753Z,16.40
2019-03-17T12:43:12.636Z,16.40
2019-03-17T12:45:41.480Z,16.50
2019-03-17T12:48:10.767Z,16.60
2019-03-17T12:50:39.649Z,16.60
2019-03-17T12:53:08.522Z,16.80
2019-03-17T12:55:37.684Z,16.60
2019-03-17T12:58:07.052Z,16.70
2019-03-17T13:00:36.062Z,16.70
2019-03-17T13:03:04.953Z,16.70
2019-03-17T13:05:33.844Z,16.60
2019-03-17T13:08:02.638Z,16.80
2019-03-17T13:10:31.539Z,16.70
2019-03-17T13:13:00.408Z,16.70
2019-03-17T13:15:30.106Z,16.60
2019-03-17T13:17:59.405Z,16.70
2019-03-17T13:20:29.755Z,16.90
2019-03-17T13:22:59.214Z,16.70
2019-03-17T13:25:28.176Z,16.50
2019-03-17T13:27:57.109Z,16.50
2019-03-17T13:30:25.934Z,16.50
2019-03-17T13:33:01.448Z,16.40
2019-03-17T13:35:30.750Z,16.30
2019-03-17T13:37:59.573Z,16.30
2019-03-17T13:40:29.939Z,16.60
2019-03-17T13:42:59.683Z,16.40
2019-03-17T13:45:28.611Z,16.40
2019-03-17T13:47:57.466Z,16.60
2019-03-17T13:50:26.429Z,16.60
2019-03-17T13:52:55.390Z,16.60
2019-03-17T13:55:24.539Z,16.60
2019-03-17T13:57:59.498Z,16.70
2019-03-17T14:00:28.423Z,16.70
2019-03-17T14:02:57.551Z,16.70
2019-03-17T14:05:26.473Z,16.60
2019-03-17T14:07:55.418Z,16.40
2019-03-17T14:10:25.988Z,16.40
2019-03-17T14:12:55.030Z,16.40
2019-03-17T14:15:24.144Z,16.20
2019-03-17T14:17:53.122Z,16.20
2019-03-17T14:20:22.645Z,16.20
2019-03-17T14:22:51.619Z,16.20
2019-03-17T14:25:31.253Z,16.10
2019-03-17T14:28:00.501Z,16.10
2019-03-17T14:30:29.626Z,16.00
2019-03-17T14:32:58.474Z,16.00
2019-03-17T14:35:27.476Z,15.90
2019-03-17T14:37:56.551Z,15.90
2019-03-17T14:40:25.499Z,15.90
2019-03-17T14:42:55.582Z,15.90
2019-03-17T14:45:24.786Z,15.90
2019-03-17T14:47:53.791Z,15.90
2019-03-17T14:50:25.835Z,15.80
2019-03-17T14:52:54.766Z,15.70
2019-03-17T14:55:23.800Z,15.70
2019-03-17T14:57:52.859Z,15.60
2019-03-17T15:00:25.096Z,15.60
2019-03-17T15:02:54.025Z,15.50
2019-03-17T15:05:25.193Z,15.50
2019-03-17T15:07:53.716Z,15.40
2019-03-17T15:10:24.183Z,15.30
2019-03-17T15:12:53.085Z,15.20
2019-03-17T15:15:22.683Z,15.10
2019-03-17T15:17:51.560Z,15.10
2019-03-17T15:20:21.958Z,15.00
2019-03-17T15:22:51.098Z,15.00
2019-03-17T15:25:20.168Z,14.90
2019-03-17T15:27:49.227Z,14.70
2019-03-17T15:30:26.194Z,14.60
2019-03-17T15:32:55.133Z,14.50
2019-03-17T15:35:23.976Z,14.30
2019-03-17T15:37:52.906Z,14.20
2019-03-17T15:40:22.250Z,14.10
2019-03-17T15:42:51.172Z,14.00
2019-03-17T15:45:22.166Z,13.80
2019-03-17T15:47:51.021Z,13.70
2019-03-17T15:50:23.271Z,13.60
2019-03-17T15:52:52.152Z,13.40
2019-03-17T15:55:21.150Z,13.40
2019-03-17T15:57:50.132Z,13.20
2019-03-17T16:00:25.969Z,13.10
2019-03-17T16:02:54.884Z,13.00
2019-03-17T16:05:23.754Z,12.80
2019-03-17T16:07:52.615Z,12.70
2019-03-17T16:10:22.543Z,12.50
2019-03-17T16:12:54.330Z,12.30
2019-03-17T16:15:23.355Z,12.00
2019-03-17T16:17:52.450Z,11.80
2019-03-17T16:20:26.214Z,11.40
2019-03-17T16:22:55.196Z,11.10
2019-03-17T16:25:25.570Z,10.80
2019-03-17T16:27:54.472Z,10.70
2019-03-17T16:30:30.401Z,10.40
2019-03-17T16:32:59.326Z,10.20
2019-03-17T16:35:28.392Z,10.10
2019-03-17T16:37:57.379Z,9.90
2019-03-17T16:40:29.157Z,9.80
2019-03-17T16:42:58.604Z,9.70
2019-03-17T16:45:27.540Z,9.60
2019-03-17T16:47:56.881Z,9.50
2019-03-17T16:50:25.928Z,9.40
2019-03-17T16:52:54.918Z,9.30
2019-03-17T16:55:24.039Z,9.30
2019-03-17T16:57:52.929Z,9.20
2019-03-17T17:00:25.535Z,9.10
2019-03-17T17:02:54.646Z,9.10
2019-03-17T17:05:24.646Z,9.00
2019-03-17T17:07:53.517Z,9.00
2019-03-17T17:10:23.863Z,8.90
2019-03-17T17:12:52.766Z,8.80
2019-03-17T17:15:24.457Z,8.70
2019-03-17T17:17:53.261Z,8.60
2019-03-17T17:20:33.296Z,8.50
2019-03-17T17:23:02.325Z,8.30
2019-03-17T17:25:31.312Z,7.80
2019-03-17T17:28:00.703Z,7.90
2019-03-17T17:30:29.798Z,7.90
2019-03-17T17:46:01.200Z,5.90
2019-03-17T17:48:30.108Z,5.80
2019-03-17T17:50:59.109Z,5.80
2019-03-17T17:53:27.918Z,5.80
2019-03-17T17:55:56.744Z,5.50
2019-03-17T17:58:25.714Z,5.30
2019-03-17T18:00:54.765Z,5.20
2019-03-17T18:03:23.590Z,5.00
2019-03-17T18:05:52.510Z,5.20
2019-03-17T18:08:21.433Z,5.30
2019-03-17T18:10:50.642Z,5.40
2019-03-17T18:13:19.604Z,5.40
2019-03-17T18:15:48.562Z,5.30
2019-03-17T18:18:17.519Z,5.20
2019-03-17T18:20:46.537Z,5.30
2019-03-17T18:23:18.257Z,5.20
2019-03-17T18:25:45.888Z,5.20
2019-03-17T18:28:14.854Z,5.10
2019-03-17T18:30:43.715Z,5.20
2019-03-17T18:33:12.630Z,5.20
2019-03-17T18:35:41.546Z,5.10
2019-03-17T18:38:10.604Z,5.10
2019-03-17T18:40:42.185Z,5.10
2019-03-17T18:43:10.549Z,5.10
2019-03-17T18:45:39.437Z,5.20
2019-03-17T18:48:08.253Z,5.20
2019-03-17T18:50:37.170Z,5.20
2019-03-17T18:53:06.329Z,5.30
2019-03-17T18:55:35.418Z,5.20
2019-03-17T18:58:04.466Z,5.30
2019-03-17T19:00:33.532Z,5.30
2019-03-17T19:03:02.396Z,5.20
2019-03-17T19:05:31.369Z,5.20
2019-03-17T19:08:00.216Z,5.20
2019-03-17T19:10:30.209Z,5.10
2019-03-17T19:12:59.134Z,5.10
2019-03-17T19:15:28.364Z,5.10
2019-03-17T19:17:57.292Z,5.10
2019-03-17T19:20:26.198Z,5.10
2019-03-17T19:22:55.041Z,5.10
2019-03-17T19:25:25.979Z,5.10
2019-03-17T19:27:54.853Z,5.10
2019-03-17T19:30:24.171Z,5.20
2019-03-17T19:32:53.017Z,5.20
2019-03-17T19:35:21.945Z,5.20
2019-03-17T19:37:50.964Z,5.10
2019-03-17T19:40:21.102Z,5.20
2019-03-17T19:42:58.710Z,5.20
2019-03-17T19:45:20.634Z,5.30
2019-03-17T19:47:49.653Z,5.30
2019-03-17T19:50:38.036Z,5.30
2019-03-17T19:53:07.229Z,5.30
2019-03-17T19:55:38.400Z,5.30
2019-03-17T19:58:07.358Z,5.30
2019-03-17T20:00:36.299Z,5.40
2019-03-17T20:03:05.392Z,5.40
2019-03-17T20:05:34.366Z,5.40
2019-03-17T20:08:03.237Z,5.40
2019-03-17T20:10:35.539Z,5.40
2019-03-17T20:13:11.334Z,5.50
2019-03-17T20:15:34.983Z,5.60
2019-03-17T20:18:04.060Z,5.60
2019-03-17T20:20:32.918Z,5.60
2019-03-17T20:23:01.808Z,5.60
2019-03-17T20:25:30.971Z,5.60
2019-03-17T20:27:59.872Z,5.60
2019-03-17T20:30:28.762Z,5.40
2019-03-17T20:32:59.853Z,5.40
2019-03-17T20:35:28.975Z,5.50
2019-03-17T20:37:57.901Z,5.50
2019-03-17T20:40:26.889Z,5.50
2019-03-17T20:42:56.642Z,5.40
2019-03-17T20:45:25.586Z,5.50
2019-03-17T20:47:54.434Z,5.40
2019-03-17T20:50:23.228Z,5.40
2019-03-17T20:52:52.425Z,5.60
2019-03-17T20:55:21.296Z,5.50
2019-03-17T20:57:50.283Z,5.50
2019-03-17T21:00:19.850Z,5.50
2019-03-17T21:02:48.842Z,5.50
2019-03-17T21:05:17.998Z,5.60
2019-03-17T21:07:47.098Z,5.60
2019-03-17T21:10:17.086Z,5.60
2019-03-17T21:12:45.964Z,5.60
2019-03-17T21:15:19.598Z,5.50
2019-03-17T21:17:48.737Z,5.60
2019-03-17T21:20:22.255Z,5.60
2019-03-17T21:22:51.234Z,5.60
2019-03-17T21:25:20.086Z,5.70
2019-03-17T21:27:49.431Z,5.70
2019-03-17T21:30:29.746Z,5.70
2019-03-17T21:32:58.728Z,5.80
2019-03-17T21:35:27.677Z,5.80
2019-03-17T21:37:56.523Z,5.80
2019-03-17T21:40:25.585Z,5.80
2019-03-17T21:42:54.553Z,5.90
2019-03-17T21:45:23.678Z,5.90
2019-03-17T21:47:52.861Z,5.80
2019-03-17T21:50:21.807Z,5.80
2019-03-17T21:52:50.640Z,5.80
2019-03-17T21:55:19.520Z,5.70
2019-03-17T21:57:48.820Z,5.70
2019-03-17T22:00:18.374Z,5.70
2019-03-17T22:02:47.263Z,5.70
2019-03-17T22:05:16.361Z,5.70
2019-03-17T22:07:50.108Z,5.70
2019-03-17T22:10:19.900Z,5.70
2019-03-17T22:12:49.052Z,5.70
2019-03-17T22:15:18.554Z,5.70
2019-03-17T22:17:47.742Z,5.70
2019-03-17T22:20:17.068Z,5.70
2019-03-17T22:22:46.170Z,5.70
2019-03-17T22:25:15.826Z,5.70
2019-03-17T22:27:44.793Z,5.60
2019-03-17T22:30:16.123Z,5.70
2019-03-17T22:32:45.135Z,5.60
2019-03-17T22:35:13.937Z,5.60
2019-03-17T22:37:42.897Z,5.60
2019-03-17T22:40:13.789Z,5.60
2019-03-17T22:42:42.618Z,5.70
2019-03-17T22:45:15.558Z,5.50
2019-03-17T22:47:44.614Z,5.60
2019-03-17T22:50:18.160Z,5.40
2019-03-17T22:52:47.226Z,5.40
2019-03-17T22:55:16.030Z,5.20
2019-03-17T22:57:44.842Z,5.20
2019-03-17T23:00:22.229Z,5.20
2019-03-17T23:02:51.051Z,5.20
2019-03-17T23:05:19.871Z,5.30
2019-03-17T23:07:48.769Z,5.20
2019-03-17T23:10:17.901Z,5.20
2019-03-17T23:12:46.845Z,5.20
2019-03-17T23:15:16.087Z,5.20
2019-03-17T23:17:45.074Z,5.10
2019-03-17T23:20:20.201Z,5.20
2019-03-17T23:22:49.016Z,5.30
2019-03-17T23:25:18.202Z,5.40
2019-03-17T23:27:47.197Z,5.40
2019-03-17T23:30:20.003Z,5.40
2019-03-17T23:32:49.666Z,5.40
2019-03-17T23:35:18.956Z,5.40
2019-03-17T23:37:48.184Z,5.30
2019-03-17T23:40:17.662Z,5.30
2019-03-17T23:42:46.769Z,5.20
2019-03-17T23:45:15.822Z,5.10
2019-03-17T23:47:44.696Z,5.10
2019-03-17T23:50:14.393Z,5.20
2019-03-17T23:52:43.310Z,5.20
2019-03-17T23:55:14.131Z,5.20
2019-03-17T23:57:42.974Z,5.10
